createdAt,value
2022-12-17T00:00:26.031Z,76.87
2022-12-17T00:03:19.357Z,84.97
2022-12-17T00:06:04.576Z,79.77
2022-12-17T00:08:49.425Z,75.63
2022-12-17T00:11:34.327Z,93.43
2022-12-17T00:14:19.473Z,72.97
2022-12-17T00:17:04.421Z,77.80
2022-12-17T00:19:49.226Z,76.03
2022-12-17T00:22:34.072Z,74.27
2022-12-17T00:25:18.967Z,73.27
2022-12-17T00:28:03.910Z,70.07
2022-12-17T00:30:49.022Z,69.73
2022-12-17T00:33:37.358Z,64.33
2022-12-17T00:36:22.939Z,61.13
2022-12-17T00:39:07.782Z,70.77
2022-12-17T00:42:03.092Z,64.67
2022-12-17T00:44:47.897Z,57.27
2022-12-17T00:47:32.811Z,61.90
2022-12-17T00:50:17.700Z,57.57
2022-12-17T00:53:02.583Z,53.30
2022-12-17T00:55:47.469Z,58.93
2022-12-17T00:58:32.749Z,70.83
2022-12-17T01:01:18.568Z,64.83
2022-12-17T01:04:03.678Z,66.43
2022-12-17T01:06:48.483Z,70.07
2022-12-17T01:09:33.253Z,75.30
2022-12-17T01:12:18.100Z,70.37
2022-12-17T01:15:02.957Z,58.63
2022-12-17T01:17:47.733Z,78.90
2022-12-17T01:20:32.620Z,75.60
2022-12-17T01:23:17.415Z,76.17
2022-12-17T01:26:02.084Z,73.33
2022-12-17T01:28:51.303Z,76.57
2022-12-17T01:31:36.742Z,67.43
2022-12-17T01:34:21.897Z,70.20
2022-12-17T01:37:06.565Z,70.23
2022-12-17T01:39:51.399Z,69.60
2022-12-17T01:42:36.180Z,68.03
2022-12-17T01:45:21.651Z,77.20
2022-12-17T01:48:09.344Z,73.20
2022-12-17T01:50:57.151Z,78.17
2022-12-17T01:53:43.931Z,76.53
2022-12-17T01:56:29.190Z,67.67
2022-12-17T01:59:14.326Z,79.03
2022-12-17T02:01:59.351Z,74.60
2022-12-17T02:04:44.211Z,74.77
2022-12-17T02:07:38.266Z,67.10
2022-12-17T02:10:42.191Z,80.13
2022-12-17T02:13:47.053Z,78.50
2022-12-17T02:16:33.636Z,71.90
2022-12-17T02:19:21.807Z,69.97
2022-12-17T02:22:10.007Z,70.33
2022-12-17T02:25:02.322Z,71.73
2022-12-17T02:27:47.539Z,76.37
2022-12-17T02:30:32.291Z,77.60
2022-12-17T02:33:17.531Z,73.80
2022-12-17T02:36:08.109Z,77.93
2022-12-17T02:38:53.117Z,75.10
2022-12-17T02:41:43.991Z,79.27
2022-12-17T02:44:29.896Z,70.60
2022-12-17T02:47:15.186Z,71.53
2022-12-17T02:49:59.989Z,72.40
2022-12-17T02:52:45.810Z,61.13
2022-12-17T02:55:31.225Z,60.57
2022-12-17T02:58:16.102Z,60.37
2022-12-17T03:01:00.918Z,57.77
2022-12-17T03:03:50.077Z,61.10
2022-12-17T03:06:35.405Z,56.80
2022-12-17T03:09:20.249Z,59.40
2022-12-17T03:12:05.103Z,51.00
2022-12-17T03:14:50.039Z,49.53
2022-12-17T03:17:34.703Z,48.00
2022-12-17T03:20:19.489Z,50.50
2022-12-17T03:23:04.312Z,47.97
2022-12-17T03:25:49.117Z,47.30
2022-12-17T03:28:33.838Z,44.43
2022-12-17T03:31:19.179Z,44.03
2022-12-17T03:34:04.801Z,38.53
2022-12-17T03:36:49.468Z,43.70
2022-12-17T03:39:34.308Z,35.07
2022-12-17T03:42:19.007Z,39.93
2022-12-17T03:45:03.776Z,35.80
2022-12-17T03:47:48.516Z,38.70
2022-12-17T03:50:33.400Z,40.57
2022-12-17T03:53:18.716Z,43.43
2022-12-17T03:56:03.474Z,40.10
2022-12-17T03:58:48.198Z,36.33
2022-12-17T04:01:33.212Z,37.97
2022-12-17T04:04:18.383Z,35.20
2022-12-17T04:07:03.070Z,34.17
2022-12-17T04:09:47.936Z,33.10
2022-12-17T04:12:32.642Z,33.03
2022-12-17T04:15:17.720Z,34.23
2022-12-17T04:18:02.681Z,34.40
2022-12-17T04:20:47.466Z,32.83
2022-12-17T04:23:32.324Z,34.87
2022-12-17T04:26:17.438Z,35.00
2022-12-17T04:29:02.329Z,43.83
2022-12-17T04:31:47.086Z,40.33
2022-12-17T04:34:31.967Z,35.90
2022-12-17T04:37:16.635Z,37.33
2022-12-17T04:40:01.612Z,41.37
2022-12-17T04:42:46.374Z,39.80
2022-12-17T04:45:31.417Z,36.27
2022-12-17T04:48:19.839Z,38.70
2022-12-17T04:51:05.533Z,38.83
2022-12-17T04:53:52.047Z,43.67
2022-12-17T04:56:36.692Z,41.87
2022-12-17T04:59:21.517Z,42.40
2022-12-17T05:02:06.387Z,50.27
2022-12-17T05:04:51.417Z,40.83
2022-12-17T05:07:36.372Z,42.83
2022-12-17T05:10:21.122Z,37.00
2022-12-17T05:13:05.938Z,39.23
2022-12-17T05:15:53.284Z,40.50
2022-12-17T05:18:38.421Z,44.90
2022-12-17T05:21:23.343Z,48.30
2022-12-17T05:24:08.133Z,48.37
2022-12-17T05:26:53.080Z,50.07
2022-12-17T05:29:38.901Z,42.47
2022-12-17T05:32:23.769Z,41.93
2022-12-17T05:35:08.496Z,37.80
2022-12-17T05:37:53.344Z,39.33
2022-12-17T05:40:38.082Z,37.23
2022-12-17T05:43:24.326Z,41.97
2022-12-17T05:46:09.748Z,40.90
2022-12-17T05:48:55.065Z,39.40
2022-12-17T05:51:40.495Z,45.17
2022-12-17T05:54:26.274Z,38.67
2022-12-17T05:57:11.314Z,44.93
2022-12-17T05:59:55.923Z,48.43
2022-12-17T06:02:41.313Z,42.33
2022-12-17T06:05:26.565Z,44.00
2022-12-17T06:08:11.308Z,39.77
2022-12-17T06:10:56.048Z,38.60
2022-12-17T06:13:40.870Z,36.43
2022-12-17T06:16:36.335Z,34.90
2022-12-17T06:19:21.027Z,35.00
2022-12-17T06:22:05.799Z,34.63
2022-12-17T06:24:50.531Z,35.97
2022-12-17T06:27:35.432Z,38.50
2022-12-17T06:30:20.174Z,39.63
2022-12-17T06:33:05.129Z,33.90
2022-12-17T06:35:49.751Z,35.80
2022-12-17T06:38:34.554Z,36.10
2022-12-17T06:41:19.730Z,36.70
2022-12-17T06:44:04.530Z,40.87
2022-12-17T06:46:49.354Z,37.50
2022-12-17T06:49:34.107Z,38.33
2022-12-17T06:52:19.030Z,37.80
2022-12-17T06:55:03.744Z,36.43
2022-12-17T06:57:50.513Z,41.90
2022-12-17T07:00:35.589Z,39.17
2022-12-17T07:03:23.451Z,43.97
2022-12-17T07:06:08.558Z,44.97
2022-12-17T07:08:53.355Z,43.20
2022-12-17T07:11:39.393Z,48.20
2022-12-17T07:14:24.583Z,40.93
2022-12-17T07:17:09.408Z,42.87
2022-12-17T07:19:54.422Z,44.37
2022-12-17T07:22:39.055Z,40.90
2022-12-17T07:25:23.823Z,40.53
2022-12-17T07:28:12.720Z,39.90
2022-12-17T07:30:57.507Z,43.80
2022-12-17T07:33:42.362Z,41.17
2022-12-17T07:36:29.586Z,42.03
2022-12-17T07:39:14.473Z,41.40
2022-12-17T07:41:59.234Z,39.17
2022-12-17T07:44:43.963Z,44.87
2022-12-17T07:47:28.807Z,38.17
2022-12-17T07:50:13.639Z,44.53
2022-12-17T07:52:58.562Z,37.73
2022-12-17T07:55:57.018Z,39.77
2022-12-17T07:58:41.984Z,40.03
2022-12-17T08:01:26.854Z,38.40
2022-12-17T08:04:11.871Z,43.00
2022-12-17T08:07:01.651Z,40.47
2022-12-17T08:09:49.062Z,37.07
2022-12-17T08:12:33.842Z,41.27
2022-12-17T08:15:18.747Z,34.97
2022-12-17T08:18:03.622Z,37.37
2022-12-17T08:20:48.578Z,39.60
2022-12-17T08:23:33.589Z,41.60
2022-12-17T08:26:18.712Z,38.67
2022-12-17T08:29:03.490Z,37.63
2022-12-17T08:31:48.306Z,37.27
2022-12-17T08:34:34.831Z,36.70
2022-12-17T08:37:19.669Z,38.77
2022-12-17T08:40:04.506Z,36.40
2022-12-17T08:42:50.020Z,38.10
2022-12-17T08:45:34.940Z,39.83
2022-12-17T08:48:24.634Z,33.87
2022-12-17T08:51:09.441Z,34.60
2022-12-17T08:53:54.435Z,40.30
2022-12-17T08:56:39.137Z,35.13
2022-12-17T08:59:23.974Z,43.57
2022-12-17T09:02:08.885Z,42.27
2022-12-17T09:04:53.870Z,38.13
2022-12-17T09:07:38.807Z,42.27
2022-12-17T09:10:23.709Z,38.83
2022-12-17T09:13:08.636Z,39.60
2022-12-17T09:15:53.481Z,37.13
2022-12-17T09:18:39.951Z,37.37
2022-12-17T09:21:25.194Z,38.00
2022-12-17T09:24:29.843Z,37.67
2022-12-17T09:27:14.912Z,41.33
2022-12-17T09:30:14.623Z,40.10
2022-12-17T09:32:59.396Z,39.87
2022-12-17T09:35:46.669Z,38.17
2022-12-17T09:38:35.416Z,44.57
2022-12-17T09:41:32.481Z,40.23
2022-12-17T09:44:25.469Z,41.57
2022-12-17T09:47:15.983Z,46.10
2022-12-17T09:50:00.789Z,44.00
2022-12-17T09:52:48.307Z,41.27
2022-12-17T09:56:05.497Z,44.07
2022-12-17T09:58:53.208Z,44.00
2022-12-17T10:01:39.067Z,45.87
2022-12-17T10:04:29.985Z,47.47
2022-12-17T10:07:15.049Z,42.93
2022-12-17T10:10:00.442Z,46.23
2022-12-17T10:12:45.208Z,46.83
2022-12-17T10:15:32.468Z,51.57
2022-12-17T10:24:36.016Z,46.10
2022-12-17T10:27:27.545Z,54.67
2022-12-17T10:30:12.407Z,60.17
2022-12-17T10:32:57.346Z,54.87
2022-12-17T10:35:44.113Z,55.90
2022-12-17T10:38:40.074Z,58.50
2022-12-17T10:41:37.396Z,60.77
2022-12-17T10:44:37.264Z,57.63
2022-12-17T10:47:22.103Z,51.67
2022-12-17T10:50:15.479Z,58.20
2022-12-17T10:53:02.305Z,56.70
2022-12-17T10:55:48.088Z,51.07
2022-12-17T10:58:38.691Z,57.20
2022-12-17T11:01:25.033Z,54.50
2022-12-17T11:04:17.339Z,54.57
2022-12-17T11:07:04.622Z,52.03
2022-12-17T11:10:10.202Z,53.43
2022-12-17T11:13:04.749Z,48.77
2022-12-17T11:15:58.236Z,51.33
2022-12-17T11:18:48.853Z,53.97
2022-12-17T11:21:38.135Z,51.50
2022-12-17T11:24:43.410Z,47.10
2022-12-17T11:27:31.290Z,50.33
2022-12-17T11:30:30.932Z,52.00
2022-12-17T11:33:35.415Z,43.63
2022-12-17T11:36:39.129Z,46.87
2022-12-17T11:39:31.467Z,44.43
2022-12-17T11:42:21.344Z,44.67
2022-12-17T11:45:13.898Z,46.50
2022-12-17T11:48:06.531Z,51.53
2022-12-17T11:50:56.831Z,43.93
2022-12-17T11:53:47.741Z,46.33
2022-12-17T11:56:38.533Z,44.00
2022-12-17T11:59:23.343Z,47.30
2022-12-17T12:02:11.302Z,44.40
2022-12-17T12:04:59.017Z,43.33
2022-12-17T12:08:00.089Z,43.23
2022-12-17T12:10:58.127Z,46.10
2022-12-17T12:13:45.940Z,43.93
2022-12-17T12:16:51.669Z,48.83
2022-12-17T12:20:12.274Z,45.23
2022-12-17T12:23:17.357Z,45.47
2022-12-17T12:26:20.953Z,57.43
2022-12-17T12:29:29.138Z,50.63
2022-12-17T12:32:24.559Z,42.37
2022-12-17T12:35:10.801Z,48.77
2022-12-17T12:37:56.089Z,51.77
2022-12-17T12:40:46.538Z,51.10
2022-12-17T12:43:51.425Z,52.03
2022-12-17T12:46:40.261Z,52.77
2022-12-17T12:49:31.266Z,51.57
2022-12-17T12:52:17.435Z,50.57
2022-12-17T12:55:05.514Z,50.77
2022-12-17T12:57:55.092Z,55.87
2022-12-17T13:00:46.335Z,58.00
2022-12-17T13:03:48.376Z,53.13
2022-12-17T13:06:34.781Z,54.63
2022-12-17T13:09:22.653Z,56.33
2022-12-17T13:11:48.846Z,52.40
2022-12-17T13:14:16.959Z,52.60
2022-12-17T13:16:48.984Z,55.43
2022-12-17T13:19:35.581Z,52.60
2022-12-17T13:22:12.201Z,58.03
2022-12-17T13:24:38.673Z,47.80
2022-12-17T13:27:04.922Z,49.53
2022-12-17T13:29:35.994Z,50.77
2022-12-17T13:32:20.138Z,49.03
2022-12-17T13:34:52.236Z,49.97
2022-12-17T13:37:21.457Z,51.10
2022-12-17T13:40:01.974Z,59.73
2022-12-17T13:42:29.327Z,51.70
2022-12-17T13:44:55.841Z,48.50
2022-12-17T13:47:23.775Z,53.23
2022-12-17T13:50:31.715Z,47.30
2022-12-17T13:52:40.856Z,45.67
2022-12-17T13:55:09.251Z,50.63
2022-12-17T13:57:36.495Z,47.00
2022-12-17T14:00:03.314Z,53.13
2022-12-17T14:02:39.319Z,54.53
2022-12-17T14:05:08.321Z,49.87
2022-12-17T14:07:37.961Z,43.57
2022-12-17T14:10:04.704Z,47.73
2022-12-17T14:12:34.729Z,48.63
2022-12-17T14:15:02.566Z,46.43
2022-12-17T14:17:30.282Z,47.03
2022-12-17T14:20:01.488Z,41.67
2022-12-17T14:22:54.424Z,48.33
2022-12-17T14:25:22.524Z,47.97
2022-12-17T14:28:00.454Z,47.57
2022-12-17T14:30:26.844Z,52.53
2022-12-17T14:32:53.609Z,48.33
2022-12-17T14:35:27.591Z,54.27
2022-12-17T14:37:53.984Z,49.97
2022-12-17T14:40:20.914Z,52.47
2022-12-17T14:42:47.602Z,49.90
2022-12-17T14:45:14.294Z,48.53
2022-12-17T14:47:40.675Z,50.70
2022-12-17T14:50:13.036Z,57.07
2022-12-17T14:52:49.776Z,53.93
2022-12-17T14:55:31.513Z,58.47
2022-12-17T14:58:12.837Z,48.03
2022-12-17T15:00:44.252Z,47.57
2022-12-17T15:03:11.787Z,53.90
2022-12-17T15:05:38.789Z,51.93
2022-12-17T15:08:05.403Z,54.73
2022-12-17T15:10:31.754Z,58.30
2022-12-17T15:12:58.022Z,59.27
2022-12-17T15:15:24.356Z,55.13
2022-12-17T15:17:50.654Z,60.00
2022-12-17T15:20:17.933Z,48.80
2022-12-17T15:22:44.421Z,55.40
2022-12-17T15:25:14.469Z,52.57
2022-12-17T15:27:40.908Z,51.67
2022-12-17T15:30:07.847Z,57.03
2022-12-17T15:32:34.138Z,52.47
2022-12-17T15:35:00.446Z,50.53
2022-12-17T15:37:26.761Z,45.97
2022-12-17T15:39:53.073Z,45.87
2022-12-17T15:42:37.807Z,52.33
2022-12-17T15:45:04.348Z,46.47
2022-12-17T15:47:30.665Z,56.03
2022-12-17T15:49:56.975Z,51.77
2022-12-17T15:52:23.780Z,50.67
2022-12-17T15:54:50.096Z,49.87
2022-12-17T15:57:18.730Z,46.10
2022-12-17T15:59:45.482Z,58.00
2022-12-17T16:02:12.294Z,51.57
2022-12-17T16:04:38.905Z,56.90
2022-12-17T16:07:05.761Z,52.83
2022-12-17T16:09:32.131Z,53.83
2022-12-17T16:11:58.606Z,55.20
2022-12-17T16:14:25.094Z,51.53
2022-12-17T16:16:51.653Z,50.63
2022-12-17T16:19:18.039Z,57.67
2022-12-17T16:21:46.974Z,50.17
2022-12-17T16:24:13.508Z,50.90
2022-12-17T16:26:39.877Z,56.37
2022-12-17T16:29:06.672Z,56.90
2022-12-17T16:31:33.377Z,65.47
2022-12-17T16:33:59.787Z,59.43
2022-12-17T16:36:26.152Z,58.20
2022-12-17T16:38:53.238Z,57.87
2022-12-17T16:41:20.348Z,56.80
2022-12-17T16:43:47.087Z,57.13
2022-12-17T16:46:31.802Z,54.40
2022-12-17T16:48:59.067Z,49.03
2022-12-17T16:51:28.788Z,55.97
2022-12-17T16:53:55.743Z,53.43
2022-12-17T16:56:23.497Z,58.43
2022-12-17T16:58:50.368Z,57.90
2022-12-17T17:01:24.013Z,61.83
2022-12-17T17:03:50.956Z,58.07
2022-12-17T17:06:17.926Z,66.30
2022-12-17T17:08:44.497Z,59.97
2022-12-17T17:11:21.471Z,65.23
2022-12-17T17:13:49.048Z,70.00
2022-12-17T17:16:16.302Z,63.03
2022-12-17T17:18:42.989Z,69.03
2022-12-17T17:21:28.215Z,58.33
2022-12-17T17:23:57.259Z,55.73
2022-12-17T17:26:23.783Z,56.03
2022-12-17T17:28:50.136Z,56.53
2022-12-17T17:31:17.031Z,57.23
2022-12-17T17:33:46.565Z,53.43
2022-12-17T17:36:15.617Z,56.27
2022-12-17T17:38:42.864Z,58.97
2022-12-17T17:41:10.423Z,53.83
2022-12-17T17:43:36.720Z,48.20
2022-12-17T17:46:06.104Z,48.50
2022-12-17T17:48:33.635Z,43.90
2022-12-17T17:51:01.152Z,47.87
2022-12-17T17:53:27.479Z,49.10
2022-12-17T17:55:53.871Z,49.57
2022-12-17T17:58:20.199Z,53.60
2022-12-17T18:00:46.593Z,57.97
2022-12-17T18:03:12.969Z,55.30
2022-12-17T18:05:41.641Z,50.37
2022-12-17T18:08:09.001Z,50.77
2022-12-17T18:10:35.305Z,55.70
2022-12-17T18:13:24.884Z,56.27
2022-12-17T18:15:51.277Z,49.90
2022-12-17T18:18:17.617Z,46.63
2022-12-17T18:20:45.329Z,46.13
2022-12-17T18:25:37.833Z,44.00
2022-12-17T18:28:04.396Z,46.70
2022-12-17T18:30:30.633Z,50.50
2022-12-17T18:32:56.863Z,46.60
2022-12-17T18:35:24.009Z,48.60
2022-12-17T18:37:50.274Z,41.27
2022-12-17T18:40:16.660Z,52.73
2022-12-17T18:43:01.703Z,50.03
2022-12-17T18:45:27.991Z,48.63
2022-12-17T18:47:54.217Z,55.07
2022-12-17T18:50:20.499Z,48.60
2022-12-17T18:52:46.724Z,49.13
2022-12-17T18:55:14.301Z,55.20
2022-12-17T18:57:40.579Z,51.97
2022-12-17T19:00:12.296Z,57.80
2022-12-17T19:02:38.583Z,53.97
2022-12-17T19:05:05.108Z,57.00
2022-12-17T19:07:31.321Z,53.87
2022-12-17T19:09:57.616Z,51.13
2022-12-17T19:12:23.838Z,47.03
2022-12-17T19:14:51.121Z,54.77
2022-12-17T19:17:17.333Z,50.73
2022-12-17T19:19:43.628Z,44.87
2022-12-17T19:22:09.880Z,54.13
2022-12-17T19:24:36.127Z,51.33
2022-12-17T19:27:02.595Z,49.03
2022-12-17T19:29:28.883Z,55.63
2022-12-17T19:31:55.201Z,49.40
2022-12-17T19:34:21.687Z,44.87
2022-12-17T19:36:47.956Z,54.17
2022-12-17T19:39:15.512Z,49.00
2022-12-17T19:41:41.748Z,68.17
2022-12-17T19:44:10.585Z,50.73
2022-12-17T19:46:36.808Z,53.43
2022-12-17T19:49:03.533Z,48.70
2022-12-17T19:51:33.209Z,48.97
2022-12-17T19:54:03.429Z,47.10
2022-12-17T19:56:33.126Z,63.20
2022-12-17T19:59:04.782Z,52.80
2022-12-17T20:01:32.493Z,47.03
2022-12-17T20:03:59.296Z,43.97
2022-12-17T20:06:27.134Z,47.00
2022-12-17T20:08:53.618Z,56.53
2022-12-17T20:11:35.544Z,55.17
2022-12-17T20:14:03.892Z,54.63
2022-12-17T20:16:31.415Z,52.30
2022-12-17T20:19:01.196Z,51.83
2022-12-17T20:21:27.490Z,47.87
2022-12-17T20:23:53.718Z,50.83
2022-12-17T20:26:20.053Z,49.07
2022-12-17T20:28:46.583Z,42.07
2022-12-17T20:31:13.050Z,48.90
2022-12-17T20:33:39.396Z,46.27
2022-12-17T20:36:05.681Z,45.23
2022-12-17T20:38:32.230Z,43.70
2022-12-17T20:40:58.522Z,42.73
2022-12-17T20:43:24.987Z,41.47
2022-12-17T20:45:52.019Z,38.27
2022-12-17T20:48:18.349Z,41.23
2022-12-17T20:50:44.997Z,79.30
2022-12-17T20:53:11.259Z,42.10
2022-12-17T20:55:37.492Z,45.07
2022-12-17T20:58:05.279Z,47.63
2022-12-17T21:00:31.540Z,45.13
2022-12-17T21:02:58.078Z,43.97
2022-12-17T21:05:27.027Z,44.63
2022-12-17T21:07:53.264Z,40.57
2022-12-17T21:10:19.587Z,40.83
2022-12-17T21:13:05.239Z,47.47
2022-12-17T21:15:31.647Z,43.90
2022-12-17T21:17:57.876Z,44.83
2022-12-17T21:20:24.624Z,44.17
2022-12-17T21:22:51.530Z,50.80
2022-12-17T21:25:17.792Z,48.83
2022-12-17T21:27:44.698Z,46.83
2022-12-17T21:30:13.306Z,58.17
2022-12-17T21:32:39.731Z,44.80
2022-12-17T21:35:06.208Z,53.77
2022-12-17T21:37:32.430Z,41.70
2022-12-17T21:40:00.064Z,50.40
2022-12-17T21:42:45.044Z,43.83
2022-12-17T21:45:11.285Z,52.50
2022-12-17T21:47:37.716Z,45.73
2022-12-17T21:50:04.056Z,48.53
2022-12-17T21:52:30.323Z,43.10
2022-12-17T21:54:56.547Z,44.10
2022-12-17T21:57:22.831Z,40.47
2022-12-17T21:59:49.124Z,42.37
2022-12-17T22:02:17.583Z,41.60
2022-12-17T22:04:44.094Z,68.10
2022-12-17T22:07:17.289Z,39.37
2022-12-17T22:10:11.870Z,43.47
2022-12-17T22:12:50.332Z,38.97
2022-12-17T22:15:16.544Z,41.03
2022-12-17T22:17:43.793Z,36.27
2022-12-17T22:20:10.384Z,43.70
2022-12-17T22:22:36.771Z,41.67
2022-12-17T22:25:08.152Z,40.40
2022-12-17T22:27:35.588Z,44.07
2022-12-17T22:30:20.408Z,41.47
2022-12-17T22:33:34.091Z,48.00
2022-12-17T22:37:53.702Z,46.80
2022-12-17T22:42:22.556Z,45.97
2022-12-17T22:44:35.587Z,43.33
2022-12-17T22:44:51.229Z,46.47
2022-12-17T22:47:16.256Z,50.60
2022-12-17T22:49:43.772Z,49.27
2022-12-17T22:52:10.801Z,44.07
2022-12-17T22:54:37.247Z,47.27
2022-12-17T22:57:36.797Z,50.07
2022-12-17T22:59:50.139Z,42.17
2022-12-17T23:02:16.798Z,44.77
2022-12-17T23:04:43.153Z,43.17
2022-12-17T23:07:09.387Z,40.47
2022-12-17T23:09:35.634Z,36.30
2022-12-17T23:12:21.882Z,43.80
2022-12-17T23:14:48.119Z,38.53
2022-12-17T23:17:14.369Z,41.97
2022-12-17T23:19:40.806Z,47.03
2022-12-17T23:22:07.076Z,42.80
2022-12-17T23:24:33.317Z,42.47
2022-12-17T23:26:59.570Z,44.67
2022-12-17T23:29:25.783Z,43.13
2022-12-17T23:31:52.057Z,44.63
2022-12-17T23:34:18.295Z,47.60
2022-12-17T23:36:44.522Z,43.53
2022-12-17T23:39:11.114Z,51.43
2022-12-17T23:41:37.433Z,44.93
2022-12-17T23:44:03.726Z,43.30
2022-12-17T23:46:30.362Z,47.27
2022-12-17T23:48:56.665Z,44.00
2022-12-17T23:51:24.148Z,44.33
2022-12-17T23:53:50.400Z,37.40
2022-12-17T23:56:21.014Z,37.50
2022-12-17T23:58:47.880Z,39.87
